Time;durP1;ratioP1;P1;durP2;ratioP2;P2;SDS_P1;SDS_P2;PMS_P1;PMS_P2;Temp;Humidity;BMP_temperature;BMP_pressure;BME280_temperature;BME280_humidity;BME280_pressure;Samples;Min_cycle;Max_cycle;Signal;HPM_P1;HPM_P2
2021/09/05 00:00:22;;;;;;;17.63;8.50;;;16.80;90.80;;;;;;5054537;28;20047;-78
2021/09/05 00:02:48;;;;;;;9.52;6.40;;;16.80;90.80;;;;;;5052980;28;20017;-78
2021/09/05 00:05:13;;;;;;;10.35;6.40;;;16.70;90.90;;;;;;5054331;28;20502;-78
2021/09/05 00:07:39;;;;;;;10.68;6.55;;;16.70;91.00;;;;;;5052848;28;20072;-77
2021/09/05 00:10:06;;;;;;;12.27;7.22;;;16.70;91.10;;;;;;5054851;28;20051;-77
2021/09/05 00:12:32;;;;;;;12.30;8.07;;;16.70;90.90;;;;;;5054546;28;20028;-77
2021/09/05 00:14:58;;;;;;;9.93;6.65;;;16.70;91.00;;;;;;5066963;28;20017;-79
2021/09/05 00:17:23;;;;;;;12.32;7.22;;;16.70;91.00;;;;;;5063884;28;20057;-78
2021/09/05 00:19:49;;;;;;;11.07;6.97;;;16.60;91.10;;;;;;5053390;28;20039;-77
2021/09/05 00:22:14;;;;;;;12.02;7.70;;;16.60;91.10;;;;;;5052962;28;20224;-78
2021/09/05 00:24:40;;;;;;;13.52;7.93;;;16.60;91.20;;;;;;5053667;28;20035;-78
2021/09/05 00:27:06;;;;;;;10.32;6.93;;;16.60;91.20;;;;;;5053122;28;20036;-78
2021/09/05 00:29:32;;;;;;;10.27;6.68;;;16.60;91.50;;;;;;5051849;28;20029;-78
2021/09/05 00:31:57;;;;;;;11.07;7.70;;;16.60;91.50;;;;;;5051926;28;20413;-79
2021/09/05 00:34:23;;;;;;;11.65;7.05;;;16.60;91.50;;;;;;5053192;28;20087;-79
2021/09/05 00:36:49;;;;;;;10.88;7.28;;;16.60;91.50;;;;;;5053420;28;20107;-78
2021/09/05 00:39:14;;;;;;;10.05;7.05;;;16.60;91.60;;;;;;5052040;28;20021;-78
2021/09/05 00:41:40;;;;;;;9.68;6.47;;;16.50;91.60;;;;;;5052353;28;20465;-78
2021/09/05 00:44:08;;;;;;;12.98;7.88;;;16.40;91.60;;;;;;5051293;28;20384;-78
2021/09/05 00:46:36;;;;;;;12.13;7.80;;;16.50;91.80;;;;;;5051545;28;20017;-78
2021/09/05 00:49:03;;;;;;;11.85;7.30;;;16.50;91.80;;;;;;5051541;28;20017;-78
2021/09/05 00:51:31;;;;;;;9.88;6.82;;;16.50;91.80;;;;;;5052208;28;20445;-77
2021/09/05 00:53:58;;;;;;;10.15;6.68;;;16.50;91.80;;;;;;5052658;28;20056;-79
2021/09/05 00:56:33;;;;;;;12.43;7.47;;;16.40;91.80;;;;;;5051502;28;20036;-79
2021/09/05 00:59:03;;;;;;;9.00;6.78;;;16.40;91.90;;;;;;5052779;28;20016;-79
2021/09/05 01:01:31;;;;;;;10.00;7.03;;;16.30;91.90;;;;;;5051172;28;20028;-78
2021/09/05 01:03:57;;;;;;;11.48;7.38;;;16.30;92.00;;;;;;5051121;28;20071;-79
2021/09/05 01:06:22;;;;;;;9.60;6.45;;;16.30;92.10;;;;;;5051006;28;20449;-77
2021/09/05 01:08:48;;;;;;;12.60;7.05;;;16.20;92.20;;;;;;5051071;28;20093;-78
2021/09/05 01:11:15;;;;;;;11.45;7.72;;;16.20;92.20;;;;;;5049954;28;20032;-77
2021/09/05 01:13:41;;;;;;;9.20;6.30;;;16.20;92.30;;;;;;5051907;28;20033;-77
2021/09/05 01:16:30;;;;;;;11.50;7.55;;;16.20;92.30;;;;;;5051677;28;20025;-77
2021/09/05 01:19:09;;;;;;;9.95;6.95;;;16.20;92.30;;;;;;5053714;28;20025;-77
2021/09/05 01:21:35;;;;;;;11.52;7.80;;;16.10;92.30;;;;;;5052571;28;20136;-77
2021/09/05 01:24:01;;;;;;;11.00;6.28;;;16.10;92.40;;;;;;5051751;28;20036;-77
2021/09/05 01:26:29;;;;;;;11.52;6.85;;;16.10;92.40;;;;;;5051950;28;20096;-78
2021/09/05 01:28:55;;;;;;;11.18;6.97;;;16.10;92.30;;;;;;5053812;28;20037;-77
2021/09/05 01:31:22;;;;;;;13.43;8.05;;;16.00;92.40;;;;;;5052004;28;20401;-77
2021/09/05 01:33:48;;;;;;;11.90;7.80;;;16.10;92.50;;;;;;5053108;28;20039;-77
2021/09/05 01:36:15;;;;;;;11.68;7.65;;;16.00;92.40;;;;;;5051866;28;20386;-77
2021/09/05 01:38:40;;;;;;;12.65;6.88;;;16.00;92.30;;;;;;5052264;28;20032;-77
2021/09/05 01:41:06;;;;;;;10.07;6.55;;;16.00;92.40;;;;;;5052507;28;20025;-77
2021/09/05 01:43:31;;;;;;;10.48;7.28;;;16.00;92.40;;;;;;5053683;28;20388;-78
2021/09/05 01:45:57;;;;;;;11.75;7.28;;;16.00;92.50;;;;;;5052971;28;20056;-78
2021/09/05 01:48:23;;;;;;;12.43;7.25;;;16.00;92.50;;;;;;5052773;28;20056;-78
2021/09/05 01:50:48;;;;;;;12.75;7.50;;;16.00;92.60;;;;;;5052708;28;20149;-77
2021/09/05 01:53:14;;;;;;;11.52;6.97;;;15.90;92.60;;;;;;5053456;28;20484;-78
2021/09/05 01:55:40;;;;;;;13.07;7.90;;;16.00;92.60;;;;;;5052178;28;20060;-78
2021/09/05 01:58:06;;;;;;;10.73;7.07;;;16.00;92.60;;;;;;5052080;28;20040;-78
2021/09/05 02:00:31;;;;;;;10.55;7.25;;;16.00;92.70;;;;;;5053642;28;20500;-78
2021/09/05 02:02:57;;;;;;;10.27;6.97;;;16.00;92.70;;;;;;5053342;28;20028;-78
2021/09/05 02:05:23;;;;;;;11.77;7.45;;;16.00;92.70;;;;;;5051413;28;20025;-78
2021/09/05 02:07:48;;;;;;;13.32;7.97;;;16.00;92.70;;;;;;5052089;28;20043;-78
2021/09/05 02:10:14;;;;;;;10.07;6.25;;;15.90;92.60;;;;;;5052595;28;20033;-79
2021/09/05 02:12:39;;;;;;;9.95;6.55;;;15.90;92.60;;;;;;5051088;28;20108;-79
2021/09/05 02:15:06;;;;;;;12.05;6.78;;;15.90;92.70;;;;;;5051223;28;20033;-76
2021/09/05 02:17:32;;;;;;;12.68;7.70;;;15.90;92.80;;;;;;5050939;28;20419;-79
2021/09/05 02:19:57;;;;;;;11.77;7.22;;;15.80;92.90;;;;;;5056471;28;20028;-78
2021/09/05 02:22:23;;;;;;;10.48;7.07;;;15.80;92.90;;;;;;5071621;28;20021;-79
2021/09/05 02:24:48;;;;;;;11.15;7.18;;;15.80;93.20;;;;;;5054207;28;20039;-78
2021/09/05 02:27:14;;;;;;;14.25;8.57;;;15.70;93.00;;;;;;5053848;28;20354;-79
2021/09/05 02:29:39;;;;;;;11.43;6.97;;;15.70;93.10;;;;;;5054177;28;20112;-77
2021/09/05 02:32:05;;;;;;;12.60;7.57;;;15.70;93.20;;;;;;5054538;28;20092;-78
2021/09/05 02:34:31;;;;;;;8.85;6.43;;;15.70;93.20;;;;;;5054731;28;20057;-77
2021/09/05 02:36:57;;;;;;;12.55;7.95;;;15.70;93.20;;;;;;5055071;28;20132;-77
2021/09/05 02:39:22;;;;;;;10.50;6.85;;;15.70;93.30;;;;;;5054544;28;20408;-77
2021/09/05 02:41:48;;;;;;;10.65;7.40;;;15.70;93.30;;;;;;5054805;28;20373;-77
2021/09/05 02:44:13;;;;;;;10.38;7.22;;;15.60;93.40;;;;;;5054225;28;20086;-77
2021/09/05 02:46:39;;;;;;;13.13;6.97;;;15.60;93.40;;;;;;5056567;28;20056;-78
2021/09/05 02:49:05;;;;;;;11.32;7.25;;;15.60;93.50;;;;;;5056316;28;20485;-78
2021/09/05 02:51:30;;;;;;;11.57;7.72;;;15.60;93.50;;;;;;5054251;28;20432;-78
2021/09/05 02:53:56;;;;;;;13.75;8.68;;;15.60;93.60;;;;;;5053944;28;20033;-78
2021/09/05 02:56:22;;;;;;;12.02;7.07;;;15.50;93.60;;;;;;5054198;28;20024;-78
2021/09/05 02:58:47;;;;;;;12.13;7.57;;;15.50;93.60;;;;;;5055230;28;20032;-77
2021/09/05 03:01:13;;;;;;;11.65;7.22;;;15.50;93.60;;;;;;5053950;28;20021;-78
2021/09/05 03:03:38;;;;;;;11.13;7.20;;;15.50;93.70;;;;;;5053981;28;20025;-77
2021/09/05 03:06:04;;;;;;;11.50;7.13;;;15.50;93.70;;;;;;5054045;28;20505;-78
2021/09/05 03:08:29;;;;;;;11.18;7.47;;;15.50;94.10;;;;;;5055283;28;20029;-77
2021/09/05 03:10:55;;;;;;;9.95;6.45;;;15.50;93.70;;;;;;5053976;28;20051;-77
2021/09/05 03:13:21;;;;;;;11.30;7.32;;;15.40;93.80;;;;;;5053088;28;20067;-76
2021/09/05 03:15:46;;;;;;;12.93;7.53;;;15.40;93.80;;;;;;5053728;28;20021;-77
2021/09/05 03:18:12;;;;;;;11.02;6.78;;;15.40;93.90;;;;;;5052714;28;20108;-78
2021/09/05 03:20:37;;;;;;;13.43;7.45;;;15.30;94.00;;;;;;5052870;28;20528;-78
2021/09/05 03:23:04;;;;;;;11.98;7.70;;;15.30;94.00;;;;;;5055513;28;20032;-78
2021/09/05 03:25:29;;;;;;;11.35;7.45;;;15.20;94.00;;;;;;5053351;28;20052;-77
2021/09/05 03:27:55;;;;;;;12.13;7.55;;;15.20;94.10;;;;;;5055324;28;20056;-78
2021/09/05 03:30:21;;;;;;;12.25;7.45;;;15.20;94.30;;;;;;5055467;28;20036;-78
2021/09/05 03:32:46;;;;;;;13.18;7.95;;;15.10;94.40;;;;;;5054201;28;20021;-78
2021/09/05 03:35:12;;;;;;;14.30;7.97;;;15.10;94.50;;;;;;5052335;28;20029;-77
2021/09/05 03:37:38;;;;;;;12.80;8.10;;;15.00;94.60;;;;;;5052812;28;20090;-78
2021/09/05 03:40:04;;;;;;;12.38;7.72;;;15.00;94.90;;;;;;5056364;28;20070;-79
2021/09/05 03:42:29;;;;;;;12.07;7.85;;;15.00;94.80;;;;;;5059156;28;20024;-77
2021/09/05 03:44:55;;;;;;;11.63;7.28;;;14.90;94.70;;;;;;5056174;28;20032;-78
2021/09/05 03:47:20;;;;;;;11.30;6.55;;;14.90;94.80;;;;;;5054297;28;20458;-78
2021/09/05 03:49:46;;;;;;;12.07;7.53;;;14.90;94.90;;;;;;5052598;28;20024;-79
2021/09/05 03:52:13;;;;;;;12.85;7.78;;;14.90;95.00;;;;;;5052358;28;20381;-78
2021/09/05 03:54:38;;;;;;;13.43;7.55;;;14.80;95.00;;;;;;5053508;28;20033;-79
2021/09/05 03:57:04;;;;;;;13.68;8.10;;;14.90;95.20;;;;;;5052543;28;20025;-79
2021/09/05 03:59:30;;;;;;;12.18;7.45;;;14.80;95.10;;;;;;5052114;28;20017;-80
2021/09/05 04:01:56;;;;;;;11.80;7.43;;;14.90;95.10;;;;;;5052611;28;20052;-79
2021/09/05 04:04:21;;;;;;;12.98;7.80;;;14.80;95.10;;;;;;5052037;28;20033;-79
2021/09/05 04:07:00;;;;;;;10.50;7.47;;;14.80;95.20;;;;;;5052340;28;20361;-79
2021/09/05 04:12:10;;;;;;;11.57;7.10;;;14.90;95.30;;;;;;5053212;28;20035;-80
2021/09/05 04:14:36;;;;;;;13.55;7.65;;;14.80;95.20;;;;;;5054081;28;20452;-79
2021/09/05 04:17:02;;;;;;;12.40;7.90;;;14.80;95.20;;;;;;5051864;28;20017;-79
2021/09/05 04:19:27;;;;;;;13.15;7.50;;;14.80;95.20;;;;;;5052183;28;20025;-79
2021/09/05 04:21:53;;;;;;;11.30;7.18;;;14.80;95.30;;;;;;5053972;28;20083;-79
2021/09/05 04:24:19;;;;;;;11.90;7.55;;;14.90;95.30;;;;;;5054022;28;20025;-80
2021/09/05 04:26:45;;;;;;;11.15;6.32;;;14.80;95.30;;;;;;5055317;28;20032;-79
2021/09/05 04:29:11;;;;;;;13.60;8.30;;;14.90;95.20;;;;;;5057067;28;20436;-79
2021/09/05 04:31:37;;;;;;;13.02;7.88;;;14.90;95.20;;;;;;5052569;28;20458;-80
2021/09/05 04:34:02;;;;;;;12.38;7.43;;;14.90;95.10;;;;;;5051846;28;20462;-81
2021/09/05 04:36:28;;;;;;;13.38;8.77;;;14.90;95.00;;;;;;5051395;28;20032;-80
2021/09/05 04:38:53;;;;;;;12.77;6.53;;;14.80;94.90;;;;;;5051959;28;20028;-81
2021/09/05 04:41:19;;;;;;;10.45;6.78;;;14.80;95.00;;;;;;5052091;28;20032;-81
2021/09/05 04:43:45;;;;;;;11.23;7.20;;;14.80;95.00;;;;;;5052747;28;20035;-81
2021/09/05 04:46:10;;;;;;;13.00;7.32;;;14.70;95.00;;;;;;5051442;28;20017;-81
2021/09/05 04:48:36;;;;;;;11.55;7.53;;;14.60;95.00;;;;;;5051775;28;20458;-81
2021/09/05 04:51:01;;;;;;;13.23;8.50;;;14.60;95.20;;;;;;5052113;28;20071;-81
2021/09/05 04:53:27;;;;;;;11.00;7.47;;;14.60;95.30;;;;;;5051240;28;20071;-81
2021/09/05 04:55:52;;;;;;;12.07;7.38;;;14.50;95.30;;;;;;5052467;28;20449;-82
2021/09/05 04:58:18;;;;;;;13.40;7.97;;;14.50;95.40;;;;;;5052576;28;20025;-82
2021/09/05 05:00:44;;;;;;;15.02;9.18;;;14.40;95.50;;;;;;5052105;28;20119;-82
2021/09/05 05:03:09;;;;;;;14.18;8.20;;;14.30;95.50;;;;;;5052155;28;20126;-81
2021/09/05 05:05:37;;;;;;;12.27;8.40;;;14.30;95.60;;;;;;5052095;28;20089;-80
2021/09/05 05:08:03;;;;;;;11.02;7.43;;;14.30;95.80;;;;;;5051626;28;20025;-80
2021/09/05 05:10:29;;;;;;;12.10;8.10;;;14.20;95.90;;;;;;5051025;28;20029;-80
2021/09/05 05:12:55;;;;;;;16.98;10.23;;;14.20;95.80;;;;;;5053343;28;20029;-82
2021/09/05 05:15:20;;;;;;;14.68;8.75;;;14.20;96.00;;;;;;5052301;28;20035;-81
2021/09/05 05:17:46;;;;;;;16.55;7.95;;;14.20;96.00;;;;;;5052289;28;20025;-81
2021/09/05 05:20:12;;;;;;;16.33;8.75;;;14.20;96.20;;;;;;5052340;28;20025;-79
2021/09/05 05:22:39;;;;;;;16.92;8.95;;;14.10;96.40;;;;;;5056553;28;20025;-81
2021/09/05 05:25:06;;;;;;;14.75;8.43;;;14.20;96.30;;;;;;5053390;28;20079;-80
2021/09/05 05:27:31;;;;;;;11.63;7.47;;;14.10;96.20;;;;;;5052460;28;20037;-81
2021/09/05 05:29:57;;;;;;;11.88;7.53;;;14.10;96.30;;;;;;5053535;28;20029;-80
2021/09/05 05:32:22;;;;;;;16.98;10.88;;;14.10;96.30;;;;;;5058735;28;20068;-81
2021/09/05 05:34:48;;;;;;;15.05;9.27;;;14.10;96.40;;;;;;5065477;28;20036;-80
2021/09/05 05:37:14;;;;;;;14.77;9.10;;;14.10;96.40;;;;;;5060858;28;20028;-81
2021/09/05 05:39:40;;;;;;;13.82;8.50;;;14.10;96.50;;;;;;5054861;28;20017;-80
2021/09/05 05:42:06;;;;;;;13.23;8.70;;;14.10;96.50;;;;;;5051180;28;20031;-82
2021/09/05 05:44:32;;;;;;;13.45;8.10;;;14.10;96.50;;;;;;5051409;28;20120;-80
2021/09/05 05:46:57;;;;;;;15.23;9.05;;;14.20;96.60;;;;;;5051163;28;20424;-81
2021/09/05 05:49:23;;;;;;;17.20;11.23;;;14.20;96.70;;;;;;5050992;28;20017;-82
2021/09/05 05:51:49;;;;;;;13.98;8.60;;;14.30;96.60;;;;;;5050699;28;20059;-82
2021/09/05 05:54:15;;;;;;;15.65;8.55;;;14.30;96.60;;;;;;5050861;28;20086;-82
2021/09/05 05:56:42;;;;;;;15.77;8.93;;;14.40;96.40;;;;;;5050677;28;20079;-81
2021/09/05 05:59:08;;;;;;;12.98;8.52;;;14.40;96.30;;;;;;5054945;28;20025;-81
2021/09/05 06:01:34;;;;;;;15.65;9.15;;;14.50;96.30;;;;;;5054977;28;20083;-80
2021/09/05 06:03:59;;;;;;;11.98;8.00;;;14.60;96.20;;;;;;5055432;28;20517;-81
2021/09/05 06:06:25;;;;;;;13.25;7.50;;;14.70;96.10;;;;;;5055750;28;20045;-81
2021/09/05 06:08:51;;;;;;;12.82;7.68;;;14.80;95.80;;;;;;5055707;28;20036;-80
2021/09/05 06:11:17;;;;;;;13.82;7.32;;;14.80;95.70;;;;;;5057624;28;20017;-82
2021/09/05 06:13:42;;;;;;;14.90;9.20;;;14.90;95.20;;;;;;5059554;28;20043;-81
2021/09/05 06:16:08;;;;;;;14.68;9.70;;;15.00;94.90;;;;;;5055237;28;20071;-81
2021/09/05 06:18:33;;;;;;;11.75;7.43;;;15.10;94.60;;;;;;5054733;28;20024;-79
2021/09/05 06:20:59;;;;;;;12.70;7.45;;;15.10;94.20;;;;;;5055052;28;20024;-82
2021/09/05 06:23:25;;;;;;;10.18;7.15;;;15.20;94.20;;;;;;5055455;28;20456;-83
2021/09/05 06:25:50;;;;;;;15.05;8.88;;;15.30;94.00;;;;;;5054536;28;20025;-82
2021/09/05 06:28:16;;;;;;;11.95;7.88;;;15.40;93.70;;;;;;5056882;28;20128;-82
2021/09/05 06:30:41;;;;;;;9.85;6.32;;;15.50;93.40;;;;;;5054971;28;20019;-80
2021/09/05 06:33:07;;;;;;;12.75;7.07;;;15.50;93.20;;;;;;5058224;28;20017;-81
2021/09/05 06:35:33;;;;;;;10.77;6.72;;;15.70;93.00;;;;;;5075486;28;20180;-81
2021/09/05 06:37:58;;;;;;;12.55;7.93;;;15.70;92.60;;;;;;5056985;28;20025;-82
2021/09/05 06:40:24;;;;;;;12.27;7.32;;;15.90;92.30;;;;;;5056033;28;20445;-81
2021/09/05 06:42:50;;;;;;;12.85;7.38;;;16.00;92.10;;;;;;5054264;28;20029;-81
2021/09/05 06:45:15;;;;;;;8.05;5.57;;;16.00;91.90;;;;;;5054265;28;20079;-82
2021/09/05 06:47:41;;;;;;;12.32;7.45;;;16.10;91.80;;;;;;5054817;28;20100;-81
2021/09/05 06:50:07;;;;;;;13.80;8.57;;;16.30;91.40;;;;;;5054408;28;20077;-82
2021/09/05 06:52:33;;;;;;;14.80;8.48;;;16.50;90.70;;;;;;5054018;28;20021;-82
2021/09/05 06:54:58;;;;;;;12.85;7.53;;;16.60;90.20;;;;;;5053893;28;20040;-81
2021/09/05 06:57:24;;;;;;;12.70;6.38;;;16.70;90.00;;;;;;5053583;28;20443;-82
2021/09/05 06:59:50;;;;;;;10.35;6.03;;;16.70;89.20;;;;;;5055315;28;20037;-82
2021/09/05 07:02:17;;;;;;;11.52;6.00;;;16.90;90.20;;;;;;5054654;28;20074;-83
2021/09/05 07:04:44;;;;;;;10.80;6.40;;;17.00;90.00;;;;;;5054581;28;20420;-83
2021/09/05 07:07:09;;;;;;;10.10;5.53;;;17.20;89.80;;;;;;5055275;28;20028;-83
2021/09/05 07:09:35;;;;;;;11.02;6.63;;;17.40;89.10;;;;;;5054309;28;20021;-81
2021/09/05 07:12:00;;;;;;;10.40;5.80;;;17.60;88.00;;;;;;5055124;28;20025;-82
2021/09/05 07:14:26;;;;;;;14.63;6.22;;;17.80;87.30;;;;;;5054422;28;20075;-81
2021/09/05 07:16:51;;;;;;;12.75;7.28;;;17.90;85.60;;;;;;5054788;28;20018;-81
2021/09/05 07:19:17;;;;;;;12.57;6.80;;;17.90;84.40;;;;;;5054958;28;20453;-81
2021/09/05 07:21:43;;;;;;;11.82;7.32;;;18.10;83.80;;;;;;5055071;28;20021;-81
2021/09/05 07:24:08;;;;;;;9.23;5.47;;;18.10;81.10;;;;;;5062239;28;20025;-81
2021/09/05 07:26:36;;;;;;;12.07;6.47;;;18.20;82.30;;;;;;5068259;28;20450;-81
2021/09/05 07:29:02;;;;;;;12.32;7.47;;;18.30;81.20;;;;;;5063169;28;20108;-81
2021/09/05 07:31:27;;;;;;;11.88;7.32;;;18.50;79.40;;;;;;5055290;28;20017;-80
2021/09/05 07:33:53;;;;;;;12.40;5.90;;;18.60;79.90;;;;;;5053361;28;20025;-81
2021/09/05 07:36:19;;;;;;;9.93;6.00;;;18.70;78.00;;;;;;5053288;28;20307;-80
2021/09/05 07:38:44;;;;;;;11.63;5.93;;;18.80;78.00;;;;;;5052706;28;20085;-80
2021/09/05 07:41:10;;;;;;;13.50;6.25;;;18.90;77.40;;;;;;5053073;28;20374;-81
2021/09/05 07:43:36;;;;;;;11.75;5.90;;;19.00;77.20;;;;;;5053821;28;20076;-80
2021/09/05 07:46:01;;;;;;;9.88;5.88;;;19.20;74.50;;;;;;5053497;28;20552;-80
2021/09/05 07:48:27;;;;;;;10.05;6.40;;;19.30;75.00;;;;;;5053636;28;20456;-80
2021/09/05 07:50:52;;;;;;;12.68;6.97;;;19.40;74.90;;;;;;5052593;28;20084;-81
2021/09/05 07:53:18;;;;;;;11.85;6.10;;;19.50;75.80;;;;;;5054972;28;20028;-81
2021/09/05 07:55:44;;;;;;;11.52;6.35;;;19.70;74.40;;;;;;5053171;28;20033;-81
2021/09/05 07:58:09;;;;;;;8.60;4.80;;;19.90;73.50;;;;;;5053165;28;20421;-80
2021/09/05 08:00:35;;;;;;;9.55;5.82;;;20.00;74.50;;;;;;5052930;28;20017;-80
2021/09/05 08:03:00;;;;;;;10.80;5.88;;;20.10;74.60;;;;;;5052911;28;20506;-80
2021/09/05 08:05:26;;;;;;;11.77;6.22;;;20.20;70.30;;;;;;5054177;28;20083;-80
2021/09/05 08:07:52;;;;;;;9.50;5.00;;;20.10;71.10;;;;;;5052798;28;20036;-81
2021/09/05 08:10:17;;;;;;;8.40;5.13;;;20.20;73.00;;;;;;5052766;28;20029;-80
2021/09/05 08:12:43;;;;;;;10.80;5.93;;;20.40;71.90;;;;;;5052012;28;20032;-80
2021/09/05 08:15:09;;;;;;;11.57;6.30;;;20.50;71.20;;;;;;5052984;28;20040;-80
2021/09/05 08:17:35;;;;;;;12.18;6.05;;;20.60;71.30;;;;;;5052922;28;20092;-80
2021/09/05 08:20:00;;;;;;;10.55;5.70;;;20.70;71.30;;;;;;5052543;28;20028;-80
2021/09/05 08:22:26;;;;;;;12.73;6.55;;;20.80;69.60;;;;;;5052568;28;20029;-80
2021/09/05 08:24:51;;;;;;;11.27;6.38;;;20.90;69.00;;;;;;5052342;28;20032;-81
2021/09/05 08:27:17;;;;;;;13.73;6.95;;;21.00;67.70;;;;;;5052273;28;20087;-80
2021/09/05 08:29:43;;;;;;;11.48;6.75;;;21.20;67.30;;;;;;5051723;28;20033;-80
2021/09/05 08:32:08;;;;;;;9.85;4.65;;;21.20;66.00;;;;;;5051789;28;20025;-80
2021/09/05 08:34:34;;;;;;;8.55;4.45;;;21.30;68.20;;;;;;5051592;28;20472;-80
2021/09/05 08:37:01;;;;;;;10.70;6.32;;;21.50;68.60;;;;;;5053117;28;20044;-80
2021/09/05 08:39:27;;;;;;;11.95;6.35;;;21.50;65.40;;;;;;5057750;28;20032;-78
2021/09/05 08:41:55;;;;;;;8.23;4.63;;;21.50;65.80;;;;;;5066235;28;20040;-80
2021/09/05 08:44:21;;;;;;;11.40;6.40;;;21.60;66.80;;;;;;5051682;28;20032;-79
2021/09/05 08:46:47;;;;;;;12.55;6.43;;;21.60;65.40;;;;;;5051030;28;20626;-79
2021/09/05 08:49:23;;;;;;;14.70;7.13;;;21.70;64.50;;;;;;5052333;28;20305;-79
2021/09/05 08:51:49;;;;;;;11.30;6.20;;;21.70;64.30;;;;;;5053163;28;20025;-79
2021/09/05 08:54:15;;;;;;;8.60;5.00;;;21.90;65.60;;;;;;5053995;28;20052;-80
2021/09/05 08:56:40;;;;;;;9.68;5.18;;;22.10;66.30;;;;;;5051692;28;20385;-79
2021/09/05 08:59:06;;;;;;;11.88;5.30;;;22.30;66.20;;;;;;5052169;28;20029;-80
2021/09/05 09:01:31;;;;;;;8.55;4.63;;;22.50;65.70;;;;;;5051368;28;20036;-80
2021/09/05 09:04:10;;;;;;;7.90;4.10;;;22.80;65.20;;;;;;5050878;28;20036;-80
2021/09/05 09:06:41;;;;;;;8.95;5.50;;;23.00;64.70;;;;;;5050653;28;20033;-80
2021/09/05 09:09:09;;;;;;;7.70;4.30;;;23.20;64.30;;;;;;5053446;28;20108;-78
2021/09/05 09:11:57;;;;;;;8.80;5.20;;;23.30;63.30;;;;;;5052744;28;20492;-80
2021/09/05 09:14:47;;;;;;;8.27;4.70;;;23.40;63.00;;;;;;5060566;28;20096;-79
2021/09/05 09:17:15;;;;;;;9.93;5.70;;;23.50;62.60;;;;;;5066974;28;20059;-79
2021/09/05 09:19:46;;;;;;;9.07;4.78;;;23.70;61.90;;;;;;5055608;28;20032;-81
2021/09/05 09:22:20;;;;;;;9.82;5.85;;;23.80;60.40;;;;;;5058893;28;20047;-83
2021/09/05 09:24:49;;;;;;;8.18;5.22;;;23.80;59.10;;;;;;5060653;28;20036;-84
2021/09/05 09:27:15;;;;;;;11.23;6.63;;;23.80;59.80;;;;;;5056066;28;20370;-85
2021/09/05 09:29:41;;;;;;;13.20;6.93;;;23.90;60.00;;;;;;5053288;28;20091;-80
2021/09/05 09:32:18;;;;;;;11.02;5.70;;;24.10;61.10;;;;;;5053951;28;20457;-84
2021/09/05 09:34:48;;;;;;;11.82;4.80;;;24.10;59.60;;;;;;5055827;28;20440;-83
2021/09/05 09:37:19;;;;;;;9.45;5.47;;;24.30;61.70;;;;;;5055334;28;20025;-82
2021/09/05 09:39:58;;;;;;;9.32;4.78;;;24.50;60.00;;;;;;5056854;28;20397;-82
2021/09/05 09:42:38;;;;;;;8.75;5.57;;;24.50;59.80;;;;;;5056091;28;20021;-82
2021/09/05 09:45:13;;;;;;;12.07;5.13;;;24.50;60.00;;;;;;5055454;28;20035;-82
2021/09/05 09:47:38;;;;;;;9.05;5.22;;;24.50;57.80;;;;;;5055208;28;20373;-82
2021/09/05 09:50:04;;;;;;;10.23;5.00;;;24.40;58.40;;;;;;5056907;28;20101;-82
2021/09/05 09:52:30;;;;;;;8.38;4.05;;;24.50;59.60;;;;;;5055438;28;20025;-81
2021/09/05 09:54:57;;;;;;;8.27;4.22;;;24.50;60.00;;;;;;5058228;28;20036;-82
2021/09/05 09:57:22;;;;;;;10.43;5.63;;;24.70;60.40;;;;;;5058013;28;20382;-82
2021/09/05 09:59:48;;;;;;;11.70;5.10;;;24.90;60.10;;;;;;5054248;28;20017;-81
2021/09/05 10:02:18;;;;;;;8.88;5.15;;;25.00;58.60;;;;;;5054312;28;20071;-80
2021/09/05 10:04:48;;;;;;;7.95;4.35;;;25.10;58.60;;;;;;5055341;28;20031;-80
2021/09/05 10:07:17;;;;;;;8.23;4.72;;;25.20;59.60;;;;;;5054232;28;20520;-81
2021/09/05 10:09:42;;;;;;;8.25;4.25;;;25.20;59.40;;;;;;5055318;28;20025;-80
2021/09/05 10:12:10;;;;;;;8.77;4.65;;;25.10;59.60;;;;;;5053746;28;20032;-81
2021/09/05 10:14:38;;;;;;;8.98;4.68;;;25.20;59.50;;;;;;5054637;28;20112;-82
2021/09/05 10:17:06;;;;;;;8.48;4.53;;;25.30;58.30;;;;;;5054320;28;20115;-82
2021/09/05 10:19:36;;;;;;;8.32;3.92;;;25.50;59.30;;;;;;5053293;28;20051;-82
2021/09/05 10:22:03;;;;;;;11.52;5.38;;;25.50;58.80;;;;;;5054085;28;20021;-81
2021/09/05 10:24:48;;;;;;;7.95;4.68;;;25.60;58.30;;;;;;5052950;28;20115;-81
2021/09/05 10:27:14;;;;;;;6.95;4.05;;;25.70;57.10;;;;;;5015259;28;1114430;-81
2021/09/05 10:30:19;;;;;;;8.57;4.28;;;25.80;58.10;;;;;;5055921;28;20108;-81
2021/09/05 10:32:59;;;;;;;8.40;4.50;;;26.00;57.80;;;;;;5048617;28;20036;-79
2021/09/05 10:35:25;;;;;;;10.38;4.97;;;26.20;57.00;;;;;;5054427;28;20029;-80
2021/09/05 10:38:10;;;;;;;8.10;5.13;;;26.40;56.70;;;;;;5053477;28;20029;-80
2021/09/05 10:40:43;;;;;;;8.85;4.25;;;26.60;54.90;;;;;;5054552;28;20032;-80
2021/09/05 10:43:09;;;;;;;8.32;4.20;;;26.90;55.00;;;;;;5055376;28;20036;-81
2021/09/05 10:45:37;;;;;;;12.25;5.95;;;26.90;55.30;;;;;;5069192;28;20009;-81
2021/09/05 10:48:22;;;;;;;11.45;6.28;;;26.90;52.40;;;;;;5065998;28;20106;-80
2021/09/05 10:50:50;;;;;;;11.23;4.97;;;26.60;50.60;;;;;;5054606;28;20032;-81
2021/09/05 10:53:23;;;;;;;7.47;3.83;;;26.50;52.30;;;;;;5055941;28;20021;-80
2021/09/05 10:56:11;;;;;;;9.30;5.43;;;26.60;54.80;;;;;;5058305;28;20068;-80
2021/09/05 10:59:02;;;;;;;8.98;5.07;;;26.80;54.60;;;;;;5055514;28;20028;-80
2021/09/05 11:01:35;;;;;;;7.75;5.00;;;26.90;55.00;;;;;;5067280;28;20029;-79
2021/09/05 11:04:13;;;;;;;11.18;5.03;;;27.00;54.60;;;;;;5070643;28;20062;-79
2021/09/05 11:06:41;;;;;;;6.80;4.07;;;27.10;53.20;;;;;;5061786;28;20039;-80
2021/09/05 11:09:24;;;;;;;6.43;3.75;;;27.20;53.60;;;;;;5055219;28;20039;-80
2021/09/05 11:12:08;;;;;;;8.52;4.32;;;27.20;54.70;;;;;;5041820;28;20087;-80
2021/09/05 11:14:37;;;;;;;7.32;4.30;;;27.30;54.80;;;;;;5035527;28;20029;-80
2021/09/05 11:17:17;;;;;;;10.55;5.32;;;27.40;54.60;;;;;;5034414;28;20032;-80
2021/09/05 11:19:44;;;;;;;8.07;4.25;;;27.60;52.00;;;;;;5033865;28;20014;-79
2021/09/05 11:22:22;;;;;;;10.38;4.90;;;27.80;52.30;;;;;;5033995;28;20025;-80
2021/09/05 11:25:23;;;;;;;6.30;3.53;;;28.00;52.50;;;;;;5041794;28;20080;-81
2021/09/05 11:28:01;;;;;;;6.85;4.47;;;28.10;53.00;;;;;;5033136;28;20401;-80
2021/09/05 11:30:33;;;;;;;8.30;5.05;;;28.10;51.60;;;;;;5034158;28;20393;-79
2021/09/05 11:33:10;;;;;;;7.78;4.72;;;28.10;52.00;;;;;;5033827;28;20358;-79
2021/09/05 11:35:38;;;;;;;7.97;4.28;;;28.00;52.50;;;;;;5033839;28;20029;-80
2021/09/05 11:38:03;;;;;;;7.53;3.97;;;28.20;52.80;;;;;;5033054;28;20032;-79
2021/09/05 11:40:29;;;;;;;7.03;3.95;;;28.30;52.60;;;;;;5034902;28;20021;-80
2021/09/05 11:42:56;;;;;;;8.32;5.20;;;28.40;52.10;;;;;;5033513;28;20178;-79
2021/09/05 11:45:26;;;;;;;6.35;3.92;;;28.40;52.30;;;;;;5038971;28;20029;-80
2021/09/05 11:48:04;;;;;;;9.15;5.60;;;28.50;52.70;;;;;;5033018;28;20017;-80
2021/09/05 11:50:31;;;;;;;8.57;5.00;;;28.60;50.40;;;;;;5033931;28;20022;-79
2021/09/05 11:52:57;;;;;;;7.75;4.53;;;28.90;50.80;;;;;;5033804;28;20025;-80
2021/09/05 11:55:23;;;;;;;6.07;4.00;;;29.00;50.70;;;;;;5033067;28;20395;-80
2021/09/05 11:57:56;;;;;;;10.82;6.07;;;28.90;51.10;;;;;;5033942;28;20034;-80
2021/09/05 12:00:31;;;;;;;6.50;4.10;;;28.80;50.30;;;;;;5032758;28;20455;-80
2021/09/05 12:02:59;;;;;;;8.02;4.72;;;29.00;51.20;;;;;;5032210;28;20542;-79
2021/09/05 12:05:25;;;;;;;7.10;4.30;;;29.10;51.10;;;;;;5033920;28;20025;-80
2021/09/05 12:07:52;;;;;;;11.35;5.95;;;29.20;50.00;;;;;;5032266;28;20109;-80
2021/09/05 12:10:19;;;;;;;9.25;4.53;;;29.40;46.70;;;;;;5033893;28;20021;-79
2021/09/05 12:13:00;;;;;;;5.63;3.28;;;29.20;47.70;;;;;;5033199;28;20436;-81
2021/09/05 12:15:34;;;;;;;7.30;4.10;;;29.20;50.00;;;;;;5032218;28;20029;-81
2021/09/05 12:18:00;;;;;;;9.23;6.20;;;29.30;48.80;;;;;;5032189;28;20061;-79
2021/09/05 12:20:40;;;;;;;9.30;6.03;;;29.40;44.60;;;;;;5033916;28;20032;-80
2021/09/05 12:23:22;;;;;;;7.85;4.97;;;29.00;42.80;;;;;;5033744;28;20063;-78
2021/09/05 12:25:49;;;;;;;9.90;5.70;;;28.90;50.50;;;;;;5032216;28;20121;-81
2021/09/05 12:28:25;;;;;;;9.05;4.72;;;29.10;48.60;;;;;;5033113;28;20109;-81
2021/09/05 12:30:59;;;;;;;6.53;4.68;;;29.40;50.20;;;;;;5033838;28;20021;-78
2021/09/05 12:33:27;;;;;;;12.18;5.03;;;29.40;50.80;;;;;;5034132;28;20025;-80
2021/09/05 12:35:55;;;;;;;10.82;6.70;;;29.30;49.30;;;;;;5037109;28;20086;-78
2021/09/05 12:38:30;;;;;;;9.15;5.65;;;29.50;44.10;;;;;;5037263;28;20033;-80
2021/09/05 12:41:05;;;;;;;8.23;4.95;;;29.70;47.50;;;;;;5032535;28;20021;-79
2021/09/05 12:43:49;;;;;;;8.00;5.68;;;29.80;49.30;;;;;;5032069;28;20032;-78
2021/09/05 12:46:18;;;;;;;11.40;6.00;;;29.90;49.50;;;;;;5032342;28;20033;-79